Aérodrome :
LOGIN :

S'inscrire | Disclaimer

   EN    FR    IT 

 










Légende :    VFR   VFR Marginal   IFR   IFR Intensif   IFR Très Intensif
Visi : 
Plafond : 
>= 8 km
>= 3000ft
5 à 8 km
1000 à 3000 ft
1500m à 5 km
500 à 1000 ft
800 à 1500m
200 à 500 ft
< 800m
< 200 ft
Symboles :   Orages  Brouillard  Fortes neiges  Fortes précipitations  Vent > 20 kt
SIGMETs :   Divers  Orages  Givrage  Turbulence  Onde Orograph.  Cendres Volcan.







- Altitude de l'aérodrome : 157 ft
- Code IATA : SXF


EDDB - Berlin Schönefeld

DERNIER METAR :
  • 221150Z 11008KT 050V180 CAVOK 24/02 Q1015 NOSIG

METARs EXPIRÉS :
  • 221120Z 12009KT 080V190 CAVOK 24/02 Q1015 NOSIG
  • 221050Z 12010KT 090V160 CAVOK 24/03 Q1015 NOSIG
  • 221020Z 13010KT 090V160 CAVOK 23/03 Q1015 NOSIG
  • 220950Z 12010KT 070V190 CAVOK 23/02 Q1015 NOSIG
  • 220920Z 12009KT 060V170 CAVOK 23/03 Q1016 NOSIG

TAF TAF EDDB
Valide du 22 à 12h jusqu'au 23 à 12h UTC


221100Z 2212/2312 10010KT CAVOK
BECMG 2217/2219 04007KT
Pas de NOTAMs connus pour ce terrain.



MET'MAP, la Météo Aéronautique d'un coup d'oeil ! - Copyright ORBIFLY Décembre 2007 - Disclaimer

ORBIFLY MET'MAP TEAM :

Programmation & Développement : Alexandra Zaïnal
Conception & Développement : Baudouin d'Aumeries
Co-Programmation & Développement : Marc-Olivier Méhu
Soutien technique & logistique : Manuel Goepfert

Contact : metmap@orbifly.com




SOURCES & CREDITS :

   NOAA